createdAt,value
2023-01-07T00:01:40.812Z,11.13
2023-01-07T00:04:12.160Z,14.10
2023-01-07T00:06:40.730Z,13.30
2023-01-07T00:09:09.483Z,13.80
2023-01-07T00:11:37.953Z,13.77
2023-01-07T00:14:06.252Z,14.30
2023-01-07T00:16:34.961Z,13.90
2023-01-07T00:19:03.645Z,14.83
2023-01-07T00:21:33.237Z,14.93
2023-01-07T00:24:02.063Z,15.80
2023-01-07T00:26:32.081Z,14.07
2023-01-07T00:29:00.151Z,14.20
2023-01-07T00:31:28.870Z,14.47
2023-01-07T00:34:08.987Z,15.37
2023-01-07T00:36:42.589Z,15.10
2023-01-07T00:39:12.200Z,17.27
2023-01-07T00:41:40.012Z,15.80
2023-01-07T00:44:08.210Z,16.30
2023-01-07T00:46:36.170Z,15.57
2023-01-07T00:49:03.942Z,13.33
2023-01-07T00:51:31.587Z,15.43
2023-01-07T00:54:00.661Z,15.97
2023-01-07T00:56:28.313Z,14.87
2023-01-07T00:58:55.943Z,14.43
2023-01-07T01:01:23.796Z,14.67
2023-01-07T01:03:51.566Z,14.30
2023-01-07T01:06:19.297Z,12.97
2023-01-07T01:08:47.768Z,11.63
2023-01-07T01:11:17.307Z,11.80
2023-01-07T01:13:45.529Z,10.47
2023-01-07T01:16:14.407Z,7.23
2023-01-07T01:18:42.208Z,7.07
2023-01-07T01:21:11.554Z,8.77
2023-01-07T01:23:39.514Z,8.80
2023-01-07T01:26:07.948Z,7.40
2023-01-07T01:28:37.052Z,9.47
2023-01-07T01:31:04.780Z,7.90
2023-01-07T01:33:32.585Z,10.97
2023-01-07T01:36:00.286Z,9.40
2023-01-07T01:38:28.049Z,8.03
2023-01-07T01:40:55.661Z,8.47
2023-01-07T01:43:33.697Z,8.13
2023-01-07T01:46:04.467Z,7.00
2023-01-07T01:48:35.091Z,8.03
2023-01-07T01:51:03.693Z,8.23
2023-01-07T01:53:32.072Z,7.10
2023-01-07T01:56:01.832Z,6.53
2023-01-07T01:58:31.140Z,6.07
2023-01-07T02:00:59.169Z,6.53
2023-01-07T02:03:29.106Z,6.00
2023-01-07T02:05:56.813Z,6.50
2023-01-07T02:08:24.527Z,7.53
2023-01-07T02:10:56.033Z,6.70
2023-01-07T02:13:30.424Z,6.30
2023-01-07T02:16:00.736Z,6.97
2023-01-07T02:18:41.530Z,7.50
2023-01-07T02:21:23.315Z,6.97
2023-01-07T02:24:11.932Z,6.67
2023-01-07T02:26:59.113Z,7.00
2023-01-07T02:29:50.913Z,6.13
2023-01-07T02:32:25.268Z,6.07
2023-01-07T02:34:58.132Z,6.10
2023-01-07T02:37:28.693Z,5.77
2023-01-07T02:39:59.639Z,5.73
2023-01-07T02:42:32.375Z,5.20
2023-01-07T02:45:03.550Z,5.10
2023-01-07T02:47:35.435Z,6.60
2023-01-07T02:50:03.171Z,5.80
2023-01-07T02:52:33.196Z,5.37
2023-01-07T02:55:02.097Z,4.73
2023-01-07T02:57:51.275Z,5.10
2023-01-07T03:00:24.399Z,5.13
2023-01-07T03:03:02.963Z,5.63
2023-01-07T03:05:40.246Z,5.17
2023-01-07T03:08:14.852Z,5.23
2023-01-07T03:10:47.181Z,5.77
2023-01-07T03:13:17.920Z,5.73
2023-01-07T03:15:46.742Z,5.47
2023-01-07T03:18:19.179Z,4.73
2023-01-07T03:20:48.716Z,5.97
2023-01-07T03:23:19.320Z,5.73
2023-01-07T03:25:48.955Z,6.40
2023-01-07T03:28:18.130Z,7.90
2023-01-07T03:30:46.412Z,7.37
2023-01-07T03:33:17.801Z,8.27
2023-01-07T03:35:47.138Z,8.67
2023-01-07T03:38:16.095Z,11.43
2023-01-07T03:40:43.874Z,14.60
2023-01-07T03:43:12.850Z,13.07
2023-01-07T03:45:40.582Z,15.77
2023-01-07T03:48:08.482Z,13.03
2023-01-07T03:50:37.554Z,13.83
2023-01-07T03:53:05.295Z,14.87
2023-01-07T03:55:32.944Z,25.10
2023-01-07T03:58:00.661Z,20.80
2023-01-07T04:00:28.334Z,18.73
2023-01-07T04:02:56.020Z,22.40
2023-01-07T04:05:23.717Z,23.37
2023-01-07T04:07:52.725Z,22.23
2023-01-07T04:10:20.694Z,18.20
2023-01-07T04:12:48.897Z,16.30
2023-01-07T04:15:16.582Z,13.37
2023-01-07T04:17:44.371Z,17.30
2023-01-07T04:20:12.448Z,14.20
2023-01-07T04:22:40.115Z,11.67
2023-01-07T04:25:09.332Z,11.07
2023-01-07T04:27:37.303Z,10.73
2023-01-07T04:30:05.339Z,7.70
2023-01-07T04:32:33.006Z,7.47
2023-01-07T04:35:00.725Z,10.03
2023-01-07T04:37:28.370Z,8.80
2023-01-07T04:39:56.066Z,9.20
2023-01-07T04:42:25.117Z,8.53
2023-01-07T04:44:53.444Z,9.27
2023-01-07T04:47:21.101Z,8.87
2023-01-07T04:49:48.937Z,9.33
2023-01-07T04:52:16.569Z,9.03
2023-01-07T04:54:44.183Z,9.57
2023-01-07T04:57:11.964Z,9.60
2023-01-07T04:59:40.956Z,12.10
2023-01-07T05:02:08.667Z,17.53
2023-01-07T05:04:36.387Z,19.87
2023-01-07T05:07:04.191Z,23.10
2023-01-07T05:09:31.807Z,18.27
2023-01-07T05:11:59.534Z,17.80
2023-01-07T05:14:27.196Z,14.83
2023-01-07T05:16:56.264Z,17.23
2023-01-07T05:19:23.973Z,18.43
2023-01-07T05:21:51.698Z,19.60
2023-01-07T05:24:19.459Z,21.50
2023-01-07T05:26:47.211Z,20.07
2023-01-07T05:29:14.877Z,22.13
2023-01-07T05:31:42.567Z,21.07
2023-01-07T05:34:11.668Z,22.47
2023-01-07T05:36:39.317Z,20.87
2023-01-07T05:39:06.977Z,16.77
2023-01-07T05:41:34.653Z,17.83
2023-01-07T05:44:02.311Z,17.77
2023-01-07T05:46:30.016Z,18.60
2023-01-07T05:48:57.767Z,19.13
2023-01-07T05:51:26.801Z,17.67
2023-01-07T05:53:55.113Z,15.70
2023-01-07T05:56:22.988Z,19.60
2023-01-07T05:58:50.611Z,16.80
2023-01-07T06:01:18.317Z,17.80
2023-01-07T06:03:46.108Z,16.93
2023-01-07T06:06:13.767Z,16.20
2023-01-07T06:08:42.799Z,17.07
2023-01-07T06:11:10.838Z,16.73
2023-01-07T06:13:38.504Z,16.57
2023-01-07T06:16:07.114Z,15.73
2023-01-07T06:18:35.167Z,15.10
2023-01-07T06:21:03.691Z,15.90
2023-01-07T06:23:31.664Z,14.17
2023-01-07T06:26:00.806Z,15.70
2023-01-07T06:28:28.446Z,13.53
2023-01-07T06:30:56.099Z,17.37
2023-01-07T06:33:23.991Z,15.00
2023-01-07T06:35:51.697Z,16.03
2023-01-07T06:38:19.369Z,16.43
2023-01-07T06:40:47.106Z,16.43
2023-01-07T06:43:16.104Z,15.37
2023-01-07T06:45:43.846Z,13.70
2023-01-07T06:48:11.649Z,13.30
2023-01-07T06:50:39.323Z,18.10
2023-01-07T06:53:06.936Z,18.00
2023-01-07T06:55:34.730Z,24.33
2023-01-07T06:58:02.439Z,24.13
2023-01-07T07:00:31.466Z,21.67
2023-01-07T07:02:59.325Z,25.83
2023-01-07T07:05:27.314Z,25.60
2023-01-07T07:07:55.091Z,21.50
2023-01-07T07:10:22.761Z,23.97
2023-01-07T07:12:50.442Z,21.10
2023-01-07T07:15:18.249Z,21.23
2023-01-07T07:17:47.343Z,22.63
2023-01-07T07:20:15.041Z,18.83
2023-01-07T07:22:45.326Z,17.97
2023-01-07T07:25:12.988Z,18.97
2023-01-07T07:27:40.621Z,18.70
2023-01-07T07:30:09.284Z,18.43
2023-01-07T07:32:36.900Z,15.67
2023-01-07T07:35:06.323Z,14.13
2023-01-07T07:37:33.999Z,15.97
2023-01-07T07:40:01.668Z,15.30
2023-01-07T07:42:29.300Z,16.23
2023-01-07T07:44:57.001Z,15.27
2023-01-07T07:47:24.636Z,16.73
2023-01-07T07:49:52.357Z,24.80
2023-01-07T07:52:21.458Z,20.93
2023-01-07T07:54:49.073Z,23.37
2023-01-07T07:57:16.739Z,20.60
2023-01-07T07:59:44.460Z,18.97
2023-01-07T08:02:13.871Z,19.17
2023-01-07T08:04:41.553Z,21.63
2023-01-07T08:07:09.315Z,19.00
2023-01-07T08:09:38.359Z,19.97
2023-01-07T08:12:06.290Z,23.10
2023-01-07T08:14:33.988Z,19.27
2023-01-07T08:17:01.625Z,21.57
2023-01-07T08:19:29.291Z,21.60
2023-01-07T08:21:57.011Z,18.60
2023-01-07T08:24:24.715Z,19.10
2023-01-07T08:26:55.702Z,17.00
2023-01-07T08:29:24.488Z,17.83
2023-01-07T08:31:53.013Z,22.33
2023-01-07T08:34:20.663Z,16.23
2023-01-07T08:36:48.383Z,19.73
2023-01-07T08:39:16.195Z,20.10
2023-01-07T08:41:44.961Z,19.67
2023-01-07T08:44:14.024Z,19.73
2023-01-07T08:46:42.930Z,18.43
2023-01-07T08:49:10.705Z,16.50
2023-01-07T08:51:38.560Z,15.30
2023-01-07T08:54:06.216Z,15.83
2023-01-07T08:56:34.565Z,17.80
2023-01-07T08:59:02.245Z,14.60
2023-01-07T09:01:31.328Z,17.77
2023-01-07T09:03:59.080Z,13.10
2023-01-07T09:06:26.757Z,14.73
2023-01-07T09:08:54.447Z,14.03
2023-01-07T09:11:22.111Z,15.07
2023-01-07T09:13:49.799Z,13.50
2023-01-07T09:16:17.545Z,11.07
2023-01-07T09:18:46.647Z,12.43
2023-01-07T09:21:14.319Z,10.13
2023-01-07T09:23:48.966Z,9.93
2023-01-07T09:26:16.645Z,9.20
2023-01-07T09:28:44.324Z,7.43
2023-01-07T09:31:12.118Z,6.57
2023-01-07T09:33:40.937Z,6.20
2023-01-07T09:36:10.148Z,7.80
2023-01-07T09:38:37.851Z,10.93
2023-01-07T09:41:05.499Z,12.83
2023-01-07T09:43:59.502Z,14.67
2023-01-07T09:46:24.652Z,13.53
2023-01-07T09:48:56.470Z,14.80
2023-01-07T09:51:27.291Z,15.70
2023-01-07T09:53:55.820Z,15.80
2023-01-07T09:56:25.991Z,13.23
2023-01-07T09:58:54.124Z,16.23
2023-01-07T10:01:25.367Z,13.00
2023-01-07T10:03:58.011Z,13.23
2023-01-07T10:06:43.098Z,12.90
2023-01-07T10:09:17.776Z,14.03
2023-01-07T10:11:49.410Z,14.73
2023-01-07T10:14:30.280Z,15.17
2023-01-07T10:17:01.904Z,13.57
2023-01-07T10:19:35.990Z,14.23
2023-01-07T10:22:10.777Z,14.03
2023-01-07T10:24:41.071Z,13.10
2023-01-07T10:27:12.060Z,13.47
2023-01-07T10:29:42.992Z,12.70
2023-01-07T10:32:14.497Z,14.13
2023-01-07T10:34:45.631Z,13.57
2023-01-07T10:37:17.530Z,13.60
2023-01-07T10:39:52.584Z,13.93
2023-01-07T10:42:24.350Z,13.87
2023-01-07T10:45:01.143Z,13.60
2023-01-07T10:47:35.497Z,13.30
2023-01-07T10:50:13.153Z,14.50
2023-01-07T10:52:46.624Z,12.83
2023-01-07T10:55:26.567Z,12.67
2023-01-07T10:57:54.217Z,12.97
2023-01-07T11:00:21.973Z,12.73
2023-01-07T11:02:51.645Z,12.70
2023-01-07T11:05:21.178Z,13.10
2023-01-07T11:07:52.755Z,11.43
2023-01-07T11:10:21.807Z,11.73
2023-01-07T11:12:50.778Z,11.93
2023-01-07T11:15:21.653Z,9.77
2023-01-07T11:17:52.216Z,6.37
2023-01-07T11:20:38.881Z,6.43
2023-01-07T11:23:18.434Z,7.80
2023-01-07T11:25:46.304Z,6.87
2023-01-07T11:28:18.580Z,7.87
2023-01-07T11:30:46.857Z,5.90
2023-01-07T11:33:20.926Z,5.50
2023-01-07T11:35:52.260Z,5.23
2023-01-07T11:38:28.755Z,4.77
2023-01-07T11:40:57.842Z,5.00
2023-01-07T11:43:31.854Z,5.30
2023-01-07T11:46:21.210Z,5.20
2023-01-07T11:48:50.116Z,4.10
2023-01-07T11:51:18.063Z,5.80
2023-01-07T11:53:51.628Z,4.90
2023-01-07T11:56:24.343Z,4.60
2023-01-07T11:58:52.692Z,4.30
2023-01-07T12:01:21.187Z,5.17
2023-01-07T12:04:05.804Z,5.20
2023-01-07T12:06:34.669Z,4.93
2023-01-07T12:09:04.775Z,4.77
2023-01-07T12:11:32.847Z,7.00
2023-01-07T12:14:03.847Z,6.10
2023-01-07T12:16:31.518Z,4.80
2023-01-07T12:19:05.507Z,6.03
2023-01-07T12:21:47.517Z,6.23
2023-01-07T12:24:29.430Z,6.10
2023-01-07T12:26:59.884Z,5.10
2023-01-07T12:29:32.204Z,4.97
2023-01-07T12:32:05.924Z,4.80
2023-01-07T12:34:38.016Z,4.70
2023-01-07T12:37:11.221Z,4.70
2023-01-07T12:39:41.857Z,4.60
2023-01-07T12:42:10.685Z,4.07
2023-01-07T12:44:40.824Z,3.93
2023-01-07T12:47:31.835Z,4.40
2023-01-07T12:50:00.824Z,5.60
2023-01-07T12:52:32.923Z,5.50
2023-01-07T12:55:03.610Z,4.93
2023-01-07T12:57:33.157Z,3.90
2023-01-07T13:00:03.155Z,3.93
2023-01-07T13:02:35.791Z,4.20
2023-01-07T13:05:09.814Z,3.87
2023-01-07T13:07:42.027Z,3.63
2023-01-07T13:10:14.873Z,4.10
2023-01-07T13:12:46.325Z,4.50
2023-01-07T13:15:20.803Z,3.87
2023-01-07T13:17:49.120Z,3.77
2023-01-07T13:20:18.588Z,4.13
2023-01-07T13:22:48.154Z,3.73
2023-01-07T13:25:27.257Z,3.50
2023-01-07T13:28:14.193Z,3.70
2023-01-07T13:30:48.789Z,3.50
2023-01-07T13:33:19.135Z,3.90
2023-01-07T13:36:02.029Z,3.67
2023-01-07T13:38:35.151Z,3.70
2023-01-07T13:41:10.816Z,3.90
2023-01-07T13:43:50.186Z,6.87
2023-01-07T13:46:19.942Z,4.67
2023-01-07T13:48:49.227Z,4.30
2023-01-07T13:51:17.559Z,3.93
2023-01-07T13:53:46.895Z,4.20
2023-01-07T13:56:32.592Z,4.20
2023-01-07T13:59:00.580Z,3.53
2023-01-07T14:01:28.802Z,2.70
2023-01-07T14:03:58.697Z,3.97
2023-01-07T14:06:44.287Z,3.67
2023-01-07T14:09:16.085Z,2.50
2023-01-07T14:11:48.989Z,3.47
2023-01-07T14:14:29.136Z,3.40
2023-01-07T14:17:02.329Z,3.43
2023-01-07T14:19:33.509Z,3.83
2023-01-07T14:22:08.819Z,4.30
2023-01-07T14:24:43.777Z,4.53
2023-01-07T14:27:16.965Z,4.10
2023-01-07T14:29:48.633Z,3.97
2023-01-07T14:32:26.210Z,3.83
2023-01-07T14:34:55.308Z,4.10
2023-01-07T14:37:31.353Z,3.80
2023-01-07T14:39:59.066Z,3.90
2023-01-07T14:42:27.921Z,3.77
2023-01-07T14:44:57.390Z,4.57
2023-01-07T14:47:43.780Z,3.70
2023-01-07T14:50:19.247Z,5.50
2023-01-07T14:53:18.462Z,5.57
2023-01-07T14:56:03.663Z,5.43
2023-01-07T14:58:37.131Z,4.67
2023-01-07T15:01:28.787Z,5.43
2023-01-07T15:04:11.209Z,6.93
2023-01-07T15:06:41.109Z,8.93
2023-01-07T15:09:28.076Z,7.47
2023-01-07T15:12:16.801Z,8.83
2023-01-07T15:15:05.246Z,9.33
2023-01-07T15:17:33.296Z,10.60
2023-01-07T15:20:05.785Z,13.23
2023-01-07T15:22:43.485Z,12.87
2023-01-07T15:25:16.382Z,13.10
2023-01-07T15:27:46.567Z,14.67
2023-01-07T15:30:21.456Z,15.20
2023-01-07T15:32:56.189Z,15.63
2023-01-07T15:35:27.475Z,19.13
2023-01-07T15:37:55.677Z,17.57
2023-01-07T15:40:25.544Z,13.53
2023-01-07T15:42:54.542Z,14.87
2023-01-07T15:45:23.858Z,15.43
2023-01-07T15:47:54.918Z,15.07
2023-01-07T15:50:24.338Z,15.17
2023-01-07T15:52:54.937Z,16.87
2023-01-07T15:55:26.902Z,17.30
2023-01-07T15:57:56.063Z,16.93
2023-01-07T16:00:25.132Z,16.93
2023-01-07T16:02:53.173Z,17.13
2023-01-07T16:05:21.267Z,16.20
2023-01-07T16:07:54.827Z,16.90
2023-01-07T16:10:23.679Z,16.20
2023-01-07T16:12:53.139Z,18.67
2023-01-07T16:15:22.272Z,16.83
2023-01-07T16:17:53.508Z,17.73
2023-01-07T16:20:22.550Z,16.27
2023-01-07T16:22:50.626Z,16.23
2023-01-07T16:25:23.064Z,16.53
2023-01-07T16:27:51.052Z,16.77
2023-01-07T16:30:19.363Z,15.17
2023-01-07T16:32:47.277Z,15.37
2023-01-07T16:35:18.340Z,14.70
2023-01-07T16:37:46.592Z,14.00
2023-01-07T16:40:27.442Z,14.20
2023-01-07T16:42:55.513Z,13.60
2023-01-07T16:45:24.568Z,13.63
2023-01-07T16:48:17.230Z,12.97
2023-01-07T16:50:46.816Z,12.27
2023-01-07T16:53:25.421Z,11.63
2023-01-07T16:55:55.956Z,15.57
2023-01-07T16:58:28.023Z,13.00
2023-01-07T17:00:57.656Z,12.70
2023-01-07T17:03:26.300Z,13.97
2023-01-07T17:06:02.330Z,12.00
2023-01-07T17:08:30.696Z,12.50
2023-01-07T17:11:01.415Z,11.40
2023-01-07T17:13:36.531Z,10.70
2023-01-07T17:16:24.438Z,11.53
2023-01-07T17:18:52.487Z,10.73
2023-01-07T17:21:40.504Z,10.50
2023-01-07T17:24:22.497Z,11.87
2023-01-07T17:26:52.319Z,11.27
2023-01-07T17:29:20.561Z,10.80
2023-01-07T17:31:48.388Z,11.90
2023-01-07T17:34:17.614Z,8.20
2023-01-07T17:36:45.419Z,8.57
2023-01-07T17:39:13.463Z,11.63
2023-01-07T17:42:07.208Z,11.53
2023-01-07T17:44:36.457Z,10.53
2023-01-07T17:47:04.493Z,14.23
2023-01-07T17:49:32.256Z,18.80
2023-01-07T17:52:00.068Z,20.33
2023-01-07T17:54:27.865Z,20.73
2023-01-07T17:56:55.700Z,25.10
2023-01-07T17:59:24.440Z,29.00
2023-01-07T18:01:55.160Z,33.10
2023-01-07T18:04:23.314Z,30.27
2023-01-07T18:06:51.214Z,29.70
2023-01-07T18:09:18.973Z,29.17
2023-01-07T18:12:05.105Z,24.70
2023-01-07T18:14:33.609Z,28.13
2023-01-07T18:17:07.452Z,25.17
2023-01-07T18:19:35.543Z,24.00
2023-01-07T18:22:03.329Z,19.83
2023-01-07T18:24:31.093Z,16.10
2023-01-07T18:26:58.862Z,11.80
2023-01-07T18:29:26.665Z,16.30
2023-01-07T18:31:54.877Z,13.47
2023-01-07T18:34:23.974Z,13.53
2023-01-07T18:36:53.732Z,12.50
2023-01-07T18:39:21.691Z,13.77
2023-01-07T18:41:50.578Z,12.83
2023-01-07T18:44:18.390Z,13.77
2023-01-07T18:46:46.489Z,16.60
2023-01-07T18:49:14.258Z,16.80
2023-01-07T18:51:43.530Z,13.70
2023-01-07T18:54:11.419Z,13.00
2023-01-07T18:56:39.166Z,11.10
2023-01-07T18:59:06.866Z,12.33
2023-01-07T19:01:34.809Z,9.73
2023-01-07T19:04:02.727Z,9.60
2023-01-07T19:06:30.768Z,12.97
2023-01-07T19:08:59.988Z,14.43
2023-01-07T19:11:28.115Z,13.33
2023-01-07T19:13:56.363Z,13.63
2023-01-07T19:16:24.263Z,11.50
2023-01-07T19:18:53.155Z,12.53
2023-01-07T19:21:21.498Z,10.03
2023-01-07T19:23:53.307Z,10.60
2023-01-07T19:26:22.838Z,9.27
2023-01-07T19:28:50.490Z,10.70
2023-01-07T19:31:18.239Z,11.13
2023-01-07T19:33:46.174Z,11.53
2023-01-07T19:36:16.435Z,7.37
2023-01-07T19:38:46.764Z,8.53
2023-01-07T19:41:15.557Z,8.80
2023-01-07T19:43:45.868Z,8.73
2023-01-07T19:46:14.676Z,6.37
2023-01-07T19:48:42.445Z,6.87
2023-01-07T19:51:10.082Z,6.10
2023-01-07T19:53:38.003Z,6.67
2023-01-07T19:56:06.715Z,6.17
2023-01-07T19:58:34.741Z,6.70
2023-01-07T20:01:05.095Z,7.23
2023-01-07T20:03:33.118Z,7.37
2023-01-07T20:06:04.448Z,7.27
2023-01-07T20:08:32.355Z,6.60
2023-01-07T20:11:00.528Z,5.90
2023-01-07T20:13:29.227Z,7.17
2023-01-07T20:15:57.061Z,6.23
2023-01-07T20:18:26.139Z,5.83
2023-01-07T20:20:57.048Z,5.70
2023-01-07T20:23:24.924Z,5.30
2023-01-07T20:25:52.765Z,5.33
2023-01-07T20:28:21.294Z,5.87
2023-01-07T20:30:49.097Z,6.40
2023-01-07T20:33:17.384Z,5.77
2023-01-07T20:35:47.903Z,6.83
2023-01-07T20:38:15.775Z,6.43
2023-01-07T20:40:43.744Z,6.33
2023-01-07T20:43:12.848Z,6.33
2023-01-07T20:45:40.930Z,7.10
2023-01-07T20:48:08.631Z,8.00
2023-01-07T20:50:39.465Z,6.87
2023-01-07T20:53:09.496Z,6.10
2023-01-07T20:55:38.068Z,5.40
2023-01-07T20:58:06.425Z,8.43
2023-01-07T21:00:34.211Z,5.63
2023-01-07T21:03:01.927Z,6.23
2023-01-07T21:05:29.788Z,6.30
2023-01-07T21:07:59.338Z,6.37
2023-01-07T21:10:28.567Z,6.47
2023-01-07T21:12:56.251Z,5.63
2023-01-07T21:15:24.771Z,5.77
2023-01-07T21:17:54.445Z,6.23
2023-01-07T21:20:22.326Z,6.50
2023-01-07T21:22:50.048Z,6.00
2023-01-07T21:25:17.759Z,7.20
2023-01-07T21:27:48.967Z,8.03
2023-01-07T21:30:18.210Z,6.67
2023-01-07T21:32:47.294Z,6.67
2023-01-07T21:35:15.599Z,6.30
2023-01-07T21:37:43.284Z,6.00
2023-01-07T21:40:11.261Z,5.93
2023-01-07T21:42:39.262Z,5.87
2023-01-07T21:45:09.610Z,5.97
2023-01-07T21:47:37.497Z,6.37
2023-01-07T21:50:05.729Z,6.37
2023-01-07T21:52:35.217Z,5.20
2023-01-07T21:55:02.966Z,6.17
2023-01-07T21:57:31.121Z,7.00
2023-01-07T21:59:58.728Z,7.37
2023-01-07T22:02:27.845Z,7.00
2023-01-07T22:04:55.585Z,7.10
2023-01-07T22:07:23.216Z,7.07
2023-01-07T22:09:50.924Z,7.43
2023-01-07T22:12:18.704Z,6.77
2023-01-07T22:14:47.078Z,7.50
2023-01-07T22:17:15.202Z,6.67
2023-01-07T22:19:44.400Z,6.50
2023-01-07T22:22:12.128Z,5.67
2023-01-07T22:24:40.119Z,6.10
2023-01-07T22:27:08.098Z,6.07
2023-01-07T22:29:37.344Z,5.80
2023-01-07T22:32:05.258Z,6.60
2023-01-07T22:34:33.483Z,6.20
2023-01-07T22:37:03.707Z,6.30
2023-01-07T22:39:33.276Z,6.23
2023-01-07T22:42:02.768Z,6.60
2023-01-07T22:44:35.381Z,6.20
2023-01-07T22:47:03.642Z,6.73
2023-01-07T22:49:32.860Z,6.13
2023-01-07T22:52:02.435Z,6.37
2023-01-07T22:54:30.306Z,6.40
2023-01-07T22:56:58.115Z,8.43
2023-01-07T22:59:25.841Z,28.63
2023-01-07T23:01:53.645Z,28.97
2023-01-07T23:04:21.579Z,22.50
2023-01-07T23:06:49.503Z,23.73
2023-01-07T23:09:18.677Z,22.10
2023-01-07T23:11:49.529Z,18.23
2023-01-07T23:14:17.836Z,19.23
2023-01-07T23:16:45.681Z,20.37
2023-01-07T23:19:13.767Z,20.53
2023-01-07T23:21:42.294Z,21.67
2023-01-07T23:24:10.358Z,21.73
2023-01-07T23:26:41.082Z,20.30
2023-01-07T23:29:09.013Z,22.03
2023-01-07T23:31:37.579Z,21.97
2023-01-07T23:34:05.816Z,26.13
2023-01-07T23:36:33.871Z,24.73
2023-01-07T23:39:01.526Z,29.63
2023-01-07T23:41:32.422Z,30.90
2023-01-07T23:44:01.640Z,28.17
2023-01-07T23:46:29.533Z,29.40
2023-01-07T23:48:57.262Z,33.37
2023-01-07T23:51:25.006Z,33.00
2023-01-07T23:53:52.961Z,35.53
2023-01-07T23:56:21.260Z,34.80
2023-01-07T23:58:49.612Z,37.73
